Leroy, Indiana
Current Conditions -  °F | °C
As of 8:56 PM on Thursday 18 Dec 2014 (Local Time) from KVPZ Reporting Station
Overcast Overcast  
Wind Chill: 18°   Ceiling: 3100
Heat Index: 25°   Visibility: 9mi
Dew Point: 18°   Wind: 6mph
Humidity: 75%   Direction: 260°W
Pressure: 30.25"   Gusts: NA
Location:  41.36°N, 87.27°W
Report Text: KVPZ 190256Z AUTO 26005KT 9SM OVC031 M04/M08 A3025 RMK AO2 SLP254 T10391078 50000 TSNO
Loading
Personal Weather Stations






























Interactive Weather Map New forecast layout! Learn more

10-Day Weather Forecast

Advertisements
Track Severe Weather on mobile